createdAt,value
2018-09-14T00:02:08.480Z,15.98
2018-09-14T00:04:35.733Z,16.48
2018-09-14T00:07:03.028Z,17.35
2018-09-14T00:09:30.317Z,16.93
2018-09-14T00:11:57.567Z,18.45
2018-09-14T00:14:24.800Z,18.60
2018-09-14T00:16:52.236Z,18.52
2018-09-14T00:19:19.479Z,17.17
2018-09-14T00:21:46.783Z,17.15
2018-09-14T00:24:14.011Z,16.87
2018-09-14T00:26:41.271Z,17.50
2018-09-14T00:29:08.526Z,16.73
2018-09-14T00:31:35.750Z,17.95
2018-09-14T00:34:03.034Z,18.10
2018-09-14T00:36:30.280Z,16.70
2018-09-14T00:38:57.542Z,18.48
2018-09-14T00:41:24.776Z,18.02
2018-09-14T00:43:52.015Z,18.15
2018-09-14T00:46:19.268Z,19.25
2018-09-14T00:48:46.538Z,19.17
2018-09-14T00:51:13.765Z,19.23
2018-09-14T00:53:40.991Z,19.37
2018-09-14T00:56:08.243Z,19.55
2018-09-14T00:58:35.493Z,19.60
2018-09-14T01:01:02.740Z,19.45
2018-09-14T01:03:29.984Z,19.75
2018-09-14T01:05:57.209Z,19.40
2018-09-14T01:08:24.430Z,19.90
2018-09-14T01:10:51.646Z,19.95
2018-09-14T01:13:18.920Z,19.60
2018-09-14T01:15:46.147Z,20.12
2018-09-14T01:18:13.411Z,20.88
2018-09-14T01:20:40.642Z,19.85
2018-09-14T01:23:07.908Z,19.85
2018-09-14T01:25:35.134Z,20.27
2018-09-14T01:28:02.374Z,20.50
2018-09-14T01:30:29.620Z,21.93
2018-09-14T01:32:56.996Z,21.55
2018-09-14T01:35:29.904Z,21.77
2018-09-14T01:37:57.112Z,22.20
2018-09-14T01:40:24.336Z,23.55
2018-09-14T01:42:51.567Z,23.50
2018-09-14T01:45:18.798Z,23.02
2018-09-14T01:47:46.011Z,25.25
2018-09-14T01:50:13.256Z,24.35
2018-09-14T01:52:40.478Z,24.27
2018-09-14T01:55:07.766Z,24.67
2018-09-14T01:57:35.019Z,23.85
2018-09-14T02:00:02.423Z,24.90
2018-09-14T02:02:29.652Z,24.32
2018-09-14T02:04:56.886Z,25.10
2018-09-14T02:07:24.158Z,25.52
2018-09-14T02:09:51.427Z,27.77
2018-09-14T02:12:18.630Z,28.38
2018-09-14T02:14:46.063Z,29.40
2018-09-14T02:17:13.427Z,30.57
2018-09-14T02:19:40.659Z,29.92
2018-09-14T02:22:07.887Z,29.25
2018-09-14T02:24:35.224Z,31.12
2018-09-14T02:27:02.517Z,30.27
2018-09-14T02:29:29.825Z,31.48
2018-09-14T02:31:57.055Z,31.48
2018-09-14T02:34:24.275Z,31.90
2018-09-14T02:36:51.596Z,31.15
2018-09-14T02:39:18.818Z,33.75
2018-09-14T02:41:46.187Z,34.10
2018-09-14T02:44:13.415Z,32.58
2018-09-14T02:46:40.640Z,33.90
2018-09-14T02:49:07.858Z,33.58
2018-09-14T02:51:35.066Z,33.05
2018-09-14T02:54:02.338Z,33.28
2018-09-14T02:56:29.552Z,33.88
2018-09-14T02:58:56.816Z,34.18
2018-09-14T03:01:24.047Z,34.98
2018-09-14T03:03:51.294Z,33.53
2018-09-14T03:06:18.524Z,33.73
2018-09-14T03:08:46.274Z,35.58
2018-09-14T03:11:13.588Z,35.25
2018-09-14T03:13:40.828Z,34.78
2018-09-14T03:16:08.068Z,34.38
2018-09-14T03:18:35.364Z,35.90
2018-09-14T03:21:02.744Z,36.40
2018-09-14T03:23:30.075Z,35.33
2018-09-14T03:25:57.612Z,36.75
2018-09-14T03:28:24.962Z,36.70
2018-09-14T03:30:52.291Z,37.88
2018-09-14T03:33:19.499Z,35.48
2018-09-14T03:35:46.740Z,36.68
2018-09-14T03:38:14.022Z,36.85
2018-09-14T03:40:41.259Z,36.58
2018-09-14T03:43:08.540Z,38.70
2018-09-14T03:45:35.836Z,37.05
2018-09-14T03:48:03.108Z,38.08
2018-09-14T03:50:30.415Z,38.00
2018-09-14T03:52:57.663Z,37.08
2018-09-14T03:55:24.919Z,38.50
2018-09-14T03:57:52.127Z,37.35
2018-09-14T04:00:19.375Z,37.90
2018-09-14T04:02:46.666Z,38.33
2018-09-14T04:05:13.984Z,38.95
2018-09-14T04:07:41.580Z,36.85
2018-09-14T04:10:08.683Z,38.05
2018-09-14T04:12:35.939Z,38.30
2018-09-14T04:15:03.215Z,39.40
2018-09-14T04:17:30.584Z,38.38
2018-09-14T04:19:57.967Z,40.00
2018-09-14T04:22:25.309Z,39.60
2018-09-14T04:24:52.514Z,40.12
2018-09-14T04:27:19.737Z,38.92
2018-09-14T04:29:47.062Z,40.83
2018-09-14T04:32:14.376Z,41.20
2018-09-14T04:34:41.620Z,40.95
2018-09-14T04:37:08.873Z,40.55
2018-09-14T04:39:36.188Z,40.12
2018-09-14T04:42:03.536Z,41.25
2018-09-14T04:44:30.835Z,40.48
2018-09-14T04:46:58.108Z,40.35
2018-09-14T04:49:25.431Z,40.28
2018-09-14T04:51:52.639Z,41.28
2018-09-14T04:54:19.851Z,41.02
2018-09-14T04:56:47.177Z,41.70
2018-09-14T04:59:14.529Z,41.15
2018-09-14T05:01:41.853Z,41.50
2018-09-14T05:04:09.205Z,40.88
2018-09-14T05:06:36.723Z,41.95
2018-09-14T05:09:05.776Z,40.95
2018-09-14T05:11:33.123Z,40.67
2018-09-14T05:14:00.475Z,41.18
2018-09-14T05:16:27.700Z,42.33
2018-09-14T05:18:54.969Z,41.45
2018-09-14T05:21:22.256Z,42.58
2018-09-14T05:23:49.548Z,40.55
2018-09-14T05:26:16.756Z,39.83
2018-09-14T05:28:44.027Z,41.85
2018-09-14T05:31:11.324Z,42.25
2018-09-14T05:33:38.648Z,40.95
2018-09-14T05:36:05.909Z,39.90
2018-09-14T05:38:33.179Z,41.02
2018-09-14T05:41:01.428Z,42.08
2018-09-14T05:43:28.788Z,41.60
2018-09-14T05:45:56.129Z,41.23
2018-09-14T05:48:23.425Z,42.08
2018-09-14T05:50:50.731Z,40.95
2018-09-14T05:53:17.972Z,40.92
2018-09-14T05:55:45.263Z,41.73
2018-09-14T05:58:12.490Z,41.23
2018-09-14T06:00:39.795Z,40.63
2018-09-14T06:03:07.070Z,41.02
2018-09-14T06:05:34.291Z,42.17
2018-09-14T06:08:01.596Z,41.85
2018-09-14T06:10:28.908Z,40.98
2018-09-14T06:12:56.145Z,41.55
2018-09-14T06:15:23.559Z,40.58
2018-09-14T06:17:50.837Z,41.68
2018-09-14T06:20:18.171Z,40.10
2018-09-14T06:22:45.506Z,40.05
2018-09-14T06:25:12.799Z,39.90
2018-09-14T06:27:40.022Z,38.65
2018-09-14T06:30:07.356Z,41.70
2018-09-14T06:32:34.571Z,51.58
2018-09-14T06:35:01.856Z,49.60
2018-09-14T06:37:29.148Z,51.23
2018-09-14T06:39:56.403Z,47.03
2018-09-14T06:42:23.619Z,54.20
2018-09-14T06:44:51.145Z,62.73
2018-09-14T06:47:18.343Z,72.00
2018-09-14T06:49:45.704Z,68.28
2018-09-14T06:52:12.984Z,66.92
2018-09-14T06:54:40.247Z,61.05
2018-09-14T06:57:07.555Z,64.95
2018-09-14T06:59:34.931Z,64.62
2018-09-14T07:02:02.170Z,63.40
2018-09-14T07:04:29.549Z,44.45
2018-09-14T07:06:56.915Z,54.53
2018-09-14T07:09:24.172Z,41.50
2018-09-14T07:11:51.557Z,36.65
2018-09-14T07:14:18.827Z,34.85
2018-09-14T07:16:46.224Z,37.33
2018-09-14T07:19:13.528Z,40.03
2018-09-14T07:21:40.907Z,41.85
2018-09-14T07:24:08.177Z,43.65
2018-09-14T07:26:35.540Z,43.55
2018-09-14T07:29:02.881Z,35.28
2018-09-14T07:31:30.122Z,29.63
2018-09-14T07:33:57.403Z,29.05
2018-09-14T07:36:24.799Z,28.15
2018-09-14T07:38:51.984Z,28.23
2018-09-14T07:41:19.328Z,28.30
2018-09-14T07:43:48.180Z,26.70
2018-09-14T07:46:15.495Z,27.32
2018-09-14T07:48:42.812Z,26.68
2018-09-14T07:51:10.207Z,25.35
2018-09-14T07:53:37.614Z,26.35
2018-09-14T07:56:05.039Z,25.72
2018-09-14T07:58:32.405Z,24.77
2018-09-14T08:00:59.719Z,23.92
2018-09-14T08:03:26.986Z,24.35
2018-09-14T08:05:54.272Z,23.22
2018-09-14T08:08:21.583Z,22.82
2018-09-14T08:10:48.896Z,22.30
2018-09-14T08:13:16.271Z,22.65
2018-09-14T08:15:43.596Z,21.90
2018-09-14T08:18:10.892Z,21.57
2018-09-14T08:20:38.580Z,21.37
2018-09-14T08:23:05.912Z,20.50
2018-09-14T08:25:33.276Z,18.02
2018-09-14T08:28:00.527Z,17.95
2018-09-14T08:30:28.900Z,17.50
2018-09-14T08:32:56.205Z,16.32
2018-09-14T08:35:23.531Z,16.62
2018-09-14T08:37:50.855Z,14.78
2018-09-14T08:40:18.194Z,16.42
2018-09-14T08:42:46.707Z,15.90
2018-09-14T08:45:14.472Z,15.78
2018-09-14T08:47:41.810Z,16.32
2018-09-14T08:50:09.171Z,15.75
2018-09-14T08:52:36.495Z,15.78
2018-09-14T08:55:03.852Z,16.50
2018-09-14T08:57:31.228Z,15.63
2018-09-14T08:59:59.338Z,16.10
2018-09-14T09:02:26.719Z,16.17
2018-09-14T09:05:01.248Z,16.50
2018-09-14T09:07:28.663Z,16.40
2018-09-14T09:09:57.392Z,16.48
2018-09-14T09:12:24.793Z,18.10
2018-09-14T09:14:52.138Z,18.95
2018-09-14T09:17:21.220Z,18.37
2018-09-14T09:19:48.720Z,18.87
2018-09-14T09:22:16.065Z,19.20
2018-09-14T09:24:43.402Z,18.20
2018-09-14T09:27:11.145Z,17.67
2018-09-14T09:29:38.463Z,17.90
2018-09-14T09:32:07.769Z,18.27
2018-09-14T09:34:36.300Z,19.23
2018-09-14T09:37:03.700Z,17.52
2018-09-14T09:39:30.989Z,17.73
2018-09-14T09:41:58.263Z,18.12
2018-09-14T09:44:25.591Z,17.52
2018-09-14T09:46:52.932Z,17.07
2018-09-14T09:49:20.236Z,16.10
2018-09-14T09:51:47.545Z,14.53
2018-09-14T09:54:14.840Z,15.45
2018-09-14T09:56:42.109Z,14.87
2018-09-14T09:59:09.403Z,15.63
2018-09-14T10:01:41.279Z,14.18
2018-09-14T10:04:14.200Z,14.00
2018-09-14T10:06:41.532Z,14.95
2018-09-14T10:09:09.039Z,14.50
2018-09-14T10:11:36.432Z,15.13
2018-09-14T10:14:04.122Z,14.07
2018-09-14T10:16:31.375Z,14.68
2018-09-14T10:18:58.761Z,14.55
2018-09-14T10:21:26.179Z,15.23
2018-09-14T10:23:53.705Z,14.93
2018-09-14T10:26:21.003Z,15.50
2018-09-14T10:28:48.416Z,15.85
2018-09-14T10:31:15.745Z,16.10
2018-09-14T10:33:43.137Z,16.00
2018-09-14T10:36:10.431Z,14.90
2018-09-14T10:38:37.727Z,14.75
2018-09-14T10:41:05.082Z,15.98
2018-09-14T10:43:32.431Z,15.35
2018-09-14T10:45:59.721Z,14.68
2018-09-14T10:48:26.990Z,14.73
2018-09-14T10:50:54.255Z,14.03
2018-09-14T10:53:21.522Z,14.18
2018-09-14T10:55:48.910Z,13.75
2018-09-14T10:58:16.295Z,13.20
2018-09-14T11:00:44.026Z,12.10
2018-09-14T11:03:11.309Z,11.50
2018-09-14T11:05:38.602Z,11.05
2018-09-14T11:08:05.886Z,11.95
2018-09-14T11:10:33.334Z,10.68
2018-09-14T11:13:00.634Z,10.78
2018-09-14T11:15:30.652Z,9.28
2018-09-14T11:17:59.996Z,8.28
2018-09-14T11:20:29.458Z,10.15
2018-09-14T11:22:56.696Z,11.25
2018-09-14T11:25:24.242Z,11.78
2018-09-14T11:27:51.410Z,11.83
2018-09-14T11:30:18.652Z,11.68
2018-09-14T11:32:45.964Z,10.80
2018-09-14T11:35:13.337Z,10.82
2018-09-14T11:37:40.715Z,11.28
2018-09-14T11:40:08.021Z,12.00
2018-09-14T11:42:35.293Z,11.68
2018-09-14T11:45:02.603Z,12.00
2018-09-14T11:47:29.851Z,12.53
2018-09-14T11:49:57.123Z,12.70
2018-09-14T11:52:24.652Z,12.45
2018-09-14T11:54:51.967Z,12.43
2018-09-14T11:57:19.234Z,12.25
2018-09-14T11:59:46.495Z,12.88
2018-09-14T12:02:13.870Z,12.43
2018-09-14T12:04:41.160Z,12.65
2018-09-14T12:07:08.407Z,12.33
2018-09-14T12:09:35.671Z,11.78
2018-09-14T12:12:02.958Z,11.03
2018-09-14T12:14:30.192Z,11.80
2018-09-14T12:16:59.515Z,11.22
2018-09-14T12:19:26.816Z,10.30
2018-09-14T12:21:54.048Z,10.23
2018-09-14T12:24:21.879Z,9.63
2018-09-14T12:26:49.132Z,8.95
2018-09-14T12:29:16.446Z,8.65
2018-09-14T12:31:43.875Z,7.80
2018-09-14T12:34:11.174Z,7.70
2018-09-14T12:36:38.455Z,7.45
2018-09-14T12:39:06.411Z,6.87
2018-09-14T12:41:33.748Z,7.20
2018-09-14T12:44:01.021Z,6.53
2018-09-14T12:46:28.389Z,6.95
2018-09-14T12:48:55.710Z,7.10
2018-09-14T12:51:22.998Z,8.10
2018-09-14T12:53:50.234Z,6.95
2018-09-14T12:56:17.515Z,7.70
2018-09-14T12:58:44.847Z,8.05
2018-09-14T13:01:12.161Z,6.70
2018-09-14T13:03:39.419Z,6.92
2018-09-14T13:06:06.708Z,7.08
2018-09-14T13:08:33.994Z,6.83
2018-09-14T13:11:01.219Z,6.85
2018-09-14T13:13:29.336Z,6.30
2018-09-14T13:15:56.704Z,6.65
2018-09-14T13:18:24.899Z,5.90
2018-09-14T13:20:52.137Z,5.80
2018-09-14T13:23:19.435Z,5.67
2018-09-14T13:25:46.754Z,5.75
2018-09-14T13:28:14.061Z,5.60
2018-09-14T13:30:41.280Z,6.15
2018-09-14T13:33:08.607Z,5.95
2018-09-14T13:35:36.128Z,6.42
2018-09-14T13:38:03.438Z,6.45
2018-09-14T13:40:30.691Z,6.40
2018-09-14T13:42:58.104Z,7.00
2018-09-14T13:45:25.351Z,6.80
2018-09-14T13:47:52.609Z,7.28
2018-09-14T13:50:19.963Z,6.90
2018-09-14T13:52:47.279Z,7.85
2018-09-14T13:55:14.532Z,7.37
2018-09-14T13:57:41.800Z,7.55
2018-09-14T14:00:09.088Z,6.37
2018-09-14T14:02:36.376Z,6.70
2018-09-14T14:05:03.678Z,6.22
2018-09-14T14:07:31.055Z,6.78
2018-09-14T14:09:58.347Z,6.33
2018-09-14T14:12:26.743Z,6.33
2018-09-14T14:14:54.034Z,6.70
2018-09-14T14:17:21.383Z,6.92
2018-09-14T14:19:48.600Z,7.37
2018-09-14T14:22:15.852Z,7.72
2018-09-14T14:24:43.106Z,7.12
2018-09-14T14:27:10.372Z,7.25
2018-09-14T14:29:37.663Z,8.05
2018-09-14T14:32:04.992Z,8.33
2018-09-14T14:34:32.228Z,8.05
2018-09-14T14:36:59.628Z,11.53
2018-09-14T14:39:26.878Z,9.33
2018-09-14T14:41:54.214Z,9.30
2018-09-14T14:44:21.524Z,10.90
2018-09-14T14:46:48.771Z,9.43
2018-09-14T14:49:16.057Z,9.15
2018-09-14T14:51:43.499Z,8.35
2018-09-14T14:54:10.741Z,9.20
2018-09-14T14:56:38.958Z,8.68
2018-09-14T14:59:06.223Z,8.95
2018-09-14T15:01:33.539Z,8.93
2018-09-14T15:04:00.795Z,8.83
2018-09-14T15:06:28.043Z,8.70
2018-09-14T15:08:55.283Z,8.10
2018-09-14T15:11:22.596Z,8.30
2018-09-14T15:13:49.839Z,9.28
2018-09-14T15:16:17.091Z,9.15
2018-09-14T15:18:44.377Z,9.00
2018-09-14T15:21:11.711Z,8.90
2018-09-14T15:23:38.951Z,8.58
2018-09-14T15:26:06.195Z,8.95
2018-09-14T15:28:33.419Z,9.55
2018-09-14T15:31:00.662Z,8.95
2018-09-14T15:33:27.878Z,8.30
2018-09-14T15:35:55.138Z,9.35
2018-09-14T15:38:22.349Z,8.45
2018-09-14T15:40:49.574Z,8.83
2018-09-14T15:43:16.858Z,9.90
2018-09-14T15:45:44.075Z,8.63
2018-09-14T15:48:11.350Z,9.50
2018-09-14T15:50:38.616Z,9.65
2018-09-14T15:53:05.902Z,9.50
2018-09-14T15:55:33.131Z,8.15
2018-09-14T15:58:00.646Z,8.63
2018-09-14T16:00:27.912Z,9.00
2018-09-14T16:02:55.121Z,9.55
2018-09-14T16:05:22.355Z,8.75
2018-09-14T16:07:49.917Z,8.48
2018-09-14T16:10:17.139Z,8.58
2018-09-14T16:12:44.468Z,8.85
2018-09-14T16:15:11.970Z,9.33
2018-09-14T16:17:39.223Z,9.45
2018-09-14T16:20:06.586Z,10.20
2018-09-14T16:22:34.227Z,9.73
2018-09-14T16:25:01.443Z,9.55
2018-09-14T16:27:28.703Z,9.18
2018-09-14T16:29:55.915Z,9.25
2018-09-14T16:32:23.108Z,9.43
2018-09-14T16:34:50.392Z,9.18
2018-09-14T16:37:17.620Z,8.40
2018-09-14T16:39:44.819Z,8.78
2018-09-14T16:42:12.047Z,9.03
2018-09-14T16:44:39.678Z,8.50
2018-09-14T16:47:07.381Z,9.40
2018-09-14T16:49:34.634Z,9.55
2018-09-14T16:52:01.863Z,11.03
2018-09-14T16:54:30.335Z,10.45
2018-09-14T16:56:57.772Z,9.43
2018-09-14T16:59:25.016Z,8.95
2018-09-14T17:01:52.300Z,8.93
2018-09-14T17:04:19.544Z,10.03
2018-09-14T17:06:46.779Z,10.20
2018-09-14T17:09:14.030Z,9.15
2018-09-14T17:11:41.287Z,9.30
2018-09-14T17:14:08.575Z,9.20
2018-09-14T17:16:36.211Z,9.80
2018-09-14T17:19:03.463Z,10.10
2018-09-14T17:21:30.771Z,9.30
2018-09-14T17:23:57.963Z,9.90
2018-09-14T17:26:25.187Z,10.23
2018-09-14T17:28:52.411Z,10.20
2018-09-14T17:31:19.658Z,8.98
2018-09-14T17:33:46.874Z,9.38
2018-09-14T17:36:14.115Z,9.73
2018-09-14T17:38:41.344Z,9.68
2018-09-14T17:41:08.589Z,8.85
2018-09-14T17:43:35.839Z,9.55
2018-09-14T17:46:03.095Z,9.43
2018-09-14T17:48:30.331Z,9.03
2018-09-14T17:50:57.583Z,8.08
2018-09-14T17:53:24.807Z,8.15
2018-09-14T17:55:52.190Z,8.65
2018-09-14T17:58:19.435Z,9.03
2018-09-14T18:00:46.690Z,8.58
2018-09-14T18:03:13.976Z,8.58
2018-09-14T18:05:41.160Z,8.70
2018-09-14T18:08:08.419Z,8.33
2018-09-14T18:10:35.621Z,9.28
2018-09-14T18:13:02.862Z,9.80
2018-09-14T18:15:30.678Z,9.05
2018-09-14T18:17:57.892Z,8.50
2018-09-14T18:20:25.095Z,8.55
2018-09-14T18:22:52.415Z,8.00
2018-09-14T18:25:19.658Z,8.40
2018-09-14T18:27:47.058Z,8.55
2018-09-14T18:30:14.143Z,8.88
2018-09-14T18:32:41.342Z,8.45
2018-09-14T18:35:08.587Z,9.40
2018-09-14T18:37:35.854Z,9.30
2018-09-14T18:40:03.127Z,9.88
2018-09-14T18:42:30.340Z,9.43
2018-09-14T18:44:57.571Z,9.58
2018-09-14T18:47:24.794Z,9.75
2018-09-14T18:49:52.025Z,9.60
2018-09-14T18:52:19.231Z,9.65
2018-09-14T18:54:46.448Z,9.83
2018-09-14T18:57:13.658Z,8.73
2018-09-14T18:59:40.927Z,9.08
2018-09-14T19:02:08.627Z,9.60
2018-09-14T19:04:36.119Z,8.75
2018-09-14T19:07:12.392Z,9.00
2018-09-14T19:09:39.596Z,9.08
2018-09-14T19:12:07.976Z,9.00
2018-09-14T19:14:39.392Z,8.83
2018-09-14T19:17:09.254Z,9.95
2018-09-14T19:19:46.765Z,10.10
2018-09-14T19:22:15.100Z,9.38
2018-09-14T19:24:44.767Z,10.60
2018-09-14T19:27:11.915Z,10.05
2018-09-14T19:29:40.869Z,10.05
2018-09-14T19:32:09.622Z,10.25
2018-09-14T19:34:37.011Z,9.40
2018-09-14T19:37:05.486Z,9.95
2018-09-14T19:39:33.435Z,8.98
2018-09-14T19:42:00.852Z,9.30
2018-09-14T19:44:29.724Z,10.13
2018-09-14T19:46:57.079Z,9.00
2018-09-14T19:49:25.945Z,9.13
2018-09-14T19:51:53.227Z,9.48
2018-09-14T19:54:20.499Z,9.90
2018-09-14T19:56:47.763Z,10.38
2018-09-14T19:59:15.058Z,10.10
2018-09-14T20:01:42.309Z,9.45
2018-09-14T20:04:13.160Z,9.75
2018-09-14T20:06:41.728Z,10.30
2018-09-14T20:09:18.646Z,10.23
2018-09-14T20:11:48.261Z,10.20
2018-09-14T20:14:21.938Z,9.93
2018-09-14T20:16:51.793Z,10.98
2018-09-14T20:19:24.704Z,10.20
2018-09-14T20:21:55.517Z,10.25
2018-09-14T20:24:23.833Z,10.50
2018-09-14T20:26:58.846Z,10.70
2018-09-14T20:29:27.957Z,10.10
2018-09-14T20:31:59.236Z,10.88
2018-09-14T20:37:27.550Z,10.32
2018-09-14T20:39:55.801Z,9.93
2018-09-14T20:42:24.128Z,10.75
2018-09-14T20:44:51.444Z,10.53
2018-09-14T20:47:21.157Z,10.78
2018-09-14T20:49:48.636Z,11.48
2018-09-14T20:52:24.630Z,10.80
2018-09-14T20:54:51.907Z,10.93
2018-09-14T20:57:20.495Z,11.20
2018-09-14T20:59:48.848Z,11.53
2018-09-14T21:02:19.619Z,10.98
2018-09-14T21:04:48.447Z,11.78
2018-09-14T21:07:15.706Z,11.40
2018-09-14T21:09:43.410Z,12.53
2018-09-14T21:12:10.707Z,12.23
2018-09-14T21:14:38.070Z,12.68
2018-09-14T21:17:05.471Z,12.95
2018-09-14T21:19:36.124Z,11.93
2018-09-14T21:22:03.505Z,11.75
2018-09-14T21:24:38.270Z,11.68
2018-09-14T21:27:09.373Z,10.90
2018-09-14T21:29:38.448Z,11.73
2018-09-14T21:32:05.871Z,10.82
2018-09-14T21:34:33.241Z,11.43
2018-09-14T21:37:00.578Z,10.50
2018-09-14T21:39:28.673Z,11.63
2018-09-14T21:41:57.900Z,10.60
2018-09-14T21:44:25.860Z,10.88
2018-09-14T21:46:58.091Z,11.78
2018-09-14T21:49:26.891Z,10.98
2018-09-14T21:51:54.155Z,12.25
2018-09-14T21:54:23.177Z,12.58
2018-09-14T21:56:50.535Z,11.85
2018-09-14T21:59:18.583Z,12.07
2018-09-14T22:01:45.883Z,12.50
2018-09-14T22:04:13.284Z,12.45
2018-09-14T22:06:41.949Z,12.63
2018-09-14T22:09:09.299Z,12.85
2018-09-14T22:11:36.643Z,12.90
2018-09-14T22:14:04.520Z,11.88
2018-09-14T22:16:32.973Z,11.80
2018-09-14T22:19:00.258Z,12.45
2018-09-14T22:21:27.567Z,11.73
2018-09-14T22:23:54.806Z,12.80
2018-09-14T22:26:22.064Z,12.47
2018-09-14T22:28:49.338Z,12.47
2018-09-14T22:31:16.650Z,12.78
2018-09-14T22:33:43.927Z,12.45
2018-09-14T22:36:11.174Z,13.10
2018-09-14T22:38:38.508Z,12.60
2018-09-14T22:41:05.770Z,14.10
2018-09-14T22:43:32.980Z,13.40
2018-09-14T22:46:00.282Z,12.98
2018-09-14T22:48:27.677Z,12.40
2018-09-14T22:50:54.908Z,11.28
2018-09-14T22:53:22.136Z,12.58
2018-09-14T22:55:49.455Z,12.33
2018-09-14T22:58:16.688Z,11.93
2018-09-14T23:01:16.749Z,12.13
2018-09-14T23:03:44.427Z,12.37
2018-09-14T23:06:11.815Z,12.47
2018-09-14T23:08:39.014Z,13.48
2018-09-14T23:11:06.631Z,13.85
2018-09-14T23:13:33.891Z,14.13
2018-09-14T23:16:01.302Z,13.80
2018-09-14T23:18:29.385Z,12.78
2018-09-14T23:20:56.802Z,12.63
2018-09-14T23:23:24.061Z,12.65
2018-09-14T23:25:53.070Z,13.00
2018-09-14T23:28:20.520Z,13.03
2018-09-14T23:30:47.839Z,13.05
2018-09-14T23:33:15.145Z,13.62
2018-09-14T23:35:42.437Z,13.50
2018-09-14T23:38:09.662Z,13.70
2018-09-14T23:40:36.938Z,14.03
2018-09-14T23:43:04.179Z,13.62
2018-09-14T23:45:31.386Z,14.15
2018-09-14T23:47:58.615Z,14.07
2018-09-14T23:50:25.826Z,14.20
2018-09-14T23:52:53.039Z,13.03
2018-09-14T23:55:20.268Z,13.58
2018-09-14T23:57:47.515Z,14.15
